sensor_id;sensor_type;location;lat;lon;timestamp;temperature;humidity
2389;DHT22;1205;47.984;7.668;2023-09-12T00:00:34;20.50;99.90
2389;DHT22;1205;47.984;7.668;2023-09-12T00:03:00;20.50;99.90
2389;DHT22;1205;47.984;7.668;2023-09-12T00:05:26;20.40;99.90
2389;DHT22;1205;47.984;7.668;2023-09-12T00:07:52;20.20;99.90
2389;DHT22;1205;47.984;7.668;2023-09-12T00:10:19;20.10;99.90
2389;DHT22;1205;47.984;7.668;2023-09-12T00:12:44;20.20;99.90
2389;DHT22;1205;47.984;7.668;2023-09-12T00:15:10;20.10;99.90
2389;DHT22;1205;47.984;7.668;2023-09-12T00:17:36;20.00;99.90
2389;DHT22;1205;47.984;7.668;2023-09-12T00:20:01;20.10;99.90
2389;DHT22;1205;47.984;7.668;2023-09-12T00:22:29;20.10;99.90
2389;DHT22;1205;47.984;7.668;2023-09-12T00:24:55;20.10;99.90
2389;DHT22;1205;47.984;7.668;2023-09-12T00:27:20;20.00;99.90
2389;DHT22;1205;47.984;7.668;2023-09-12T00:29:46;20.00;99.90
2389;DHT22;1205;47.984;7.668;2023-09-12T00:32:11;20.00;99.90
2389;DHT22;1205;47.984;7.668;2023-09-12T00:34:37;20.00;99.90
2389;DHT22;1205;47.984;7.668;2023-09-12T00:37:02;20.00;99.90
2389;DHT22;1205;47.984;7.668;2023-09-12T00:39:28;19.90;99.90
2389;DHT22;1205;47.984;7.668;2023-09-12T00:41:53;19.90;99.90
2389;DHT22;1205;47.984;7.668;2023-09-12T00:44:19;19.80;99.90
2389;DHT22;1205;47.984;7.668;2023-09-12T00:46:46;19.90;99.90
2389;DHT22;1205;47.984;7.668;2023-09-12T00:49:14;19.90;99.90
2389;DHT22;1205;47.984;7.668;2023-09-12T00:51:40;19.90;99.90
2389;DHT22;1205;47.984;7.668;2023-09-12T00:54:07;19.90;99.90
2389;DHT22;1205;47.984;7.668;2023-09-12T00:56:33;19.90;99.90
2389;DHT22;1205;47.984;7.668;2023-09-12T00:59:00;19.90;99.90
2389;DHT22;1205;47.984;7.668;2023-09-12T01:01:26;19.90;99.90
2389;DHT22;1205;47.984;7.668;2023-09-12T01:03:52;19.80;99.90
2389;DHT22;1205;47.984;7.668;2023-09-12T01:06:21;19.80;99.90
2389;DHT22;1205;47.984;7.668;2023-09-12T01:08:49;19.90;99.90
2389;DHT22;1205;47.984;7.668;2023-09-12T01:11:14;20.00;99.90
2389;DHT22;1205;47.984;7.668;2023-09-12T01:13:42;20.10;99.90
2389;DHT22;1205;47.984;7.668;2023-09-12T01:16:07;20.30;99.90
2389;DHT22;1205;47.984;7.668;2023-09-12T01:18:33;20.30;99.90
2389;DHT22;1205;47.984;7.668;2023-09-12T01:26:58;20.20;99.90
2389;DHT22;1205;47.984;7.668;2023-09-12T01:29:25;20.20;99.90
2389;DHT22;1205;47.984;7.668;2023-09-12T01:31:52;20.30;99.90
2389;DHT22;1205;47.984;7.668;2023-09-12T01:34:19;20.20;99.90
2389;DHT22;1205;47.984;7.668;2023-09-12T01:36:44;20.20;99.90
2389;DHT22;1205;47.984;7.668;2023-09-12T01:39:10;20.10;99.90
2389;DHT22;1205;47.984;7.668;2023-09-12T01:41:39;20.20;99.90
2389;DHT22;1205;47.984;7.668;2023-09-12T01:44:06;20.30;99.90
2389;DHT22;1205;47.984;7.668;2023-09-12T01:46:34;20.30;99.90
2389;DHT22;1205;47.984;7.668;2023-09-12T01:49:02;20.30;99.90
2389;DHT22;1205;47.984;7.668;2023-09-12T01:51:29;20.20;99.90
2389;DHT22;1205;47.984;7.668;2023-09-12T01:53:55;20.30;99.90
2389;DHT22;1205;47.984;7.668;2023-09-12T01:56:22;20.40;99.90
2389;DHT22;1205;47.984;7.668;2023-09-12T01:58:48;20.40;99.90
2389;DHT22;1205;47.984;7.668;2023-09-12T02:01:14;20.40;99.90
2389;DHT22;1205;47.984;7.668;2023-09-12T02:03:40;20.50;99.90
2389;DHT22;1205;47.984;7.668;2023-09-12T02:06:05;20.50;99.90
2389;DHT22;1205;47.984;7.668;2023-09-12T02:08:31;20.50;99.90
2389;DHT22;1205;47.984;7.668;2023-09-12T02:10:57;20.50;99.90
2389;DHT22;1205;47.984;7.668;2023-09-12T02:13:22;20.50;99.90
2389;DHT22;1205;47.984;7.668;2023-09-12T02:15:48;20.40;99.90
2389;DHT22;1205;47.984;7.668;2023-09-12T02:18:13;20.40;99.90
2389;DHT22;1205;47.984;7.668;2023-09-12T02:20:40;20.40;99.90
2389;DHT22;1205;47.984;7.668;2023-09-12T02:23:06;20.40;99.90
2389;DHT22;1205;47.984;7.668;2023-09-12T02:25:32;20.40;99.90
2389;DHT22;1205;47.984;7.668;2023-09-12T02:27:58;20.50;99.90
2389;DHT22;1205;47.984;7.668;2023-09-12T02:30:23;20.50;99.90
2389;DHT22;1205;47.984;7.668;2023-09-12T02:32:49;20.50;99.90
2389;DHT22;1205;47.984;7.668;2023-09-12T02:35:14;20.50;99.90
2389;DHT22;1205;47.984;7.668;2023-09-12T02:37:40;20.50;99.90
2389;DHT22;1205;47.984;7.668;2023-09-12T02:40:06;20.50;99.90
2389;DHT22;1205;47.984;7.668;2023-09-12T02:42:32;20.40;99.90
2389;DHT22;1205;47.984;7.668;2023-09-12T02:44:58;20.40;99.90
2389;DHT22;1205;47.984;7.668;2023-09-12T02:47:23;20.40;99.90
2389;DHT22;1205;47.984;7.668;2023-09-12T02:49:49;20.50;99.90
2389;DHT22;1205;47.984;7.668;2023-09-12T02:52:14;20.40;99.90
2389;DHT22;1205;47.984;7.668;2023-09-12T02:54:40;20.50;99.90
2389;DHT22;1205;47.984;7.668;2023-09-12T02:57:06;20.40;99.90
2389;DHT22;1205;47.984;7.668;2023-09-12T02:59:31;20.40;99.90
2389;DHT22;1205;47.984;7.668;2023-09-12T03:01:57;20.30;99.90
2389;DHT22;1205;47.984;7.668;2023-09-12T03:04:25;20.20;99.90
2389;DHT22;1205;47.984;7.668;2023-09-12T03:06:50;20.30;99.90
2389;DHT22;1205;47.984;7.668;2023-09-12T03:09:16;20.30;99.90
2389;DHT22;1205;47.984;7.668;2023-09-12T03:11:42;20.30;99.90
2389;DHT22;1205;47.984;7.668;2023-09-12T03:14:08;20.30;99.90
2389;DHT22;1205;47.984;7.668;2023-09-12T03:16:33;20.30;99.90
2389;DHT22;1205;47.984;7.668;2023-09-12T03:18:59;20.40;99.90
2389;DHT22;1205;47.984;7.668;2023-09-12T03:21:26;20.40;99.90
2389;DHT22;1205;47.984;7.668;2023-09-12T03:23:52;20.30;99.90
2389;DHT22;1205;47.984;7.668;2023-09-12T03:26:17;20.20;99.90
2389;DHT22;1205;47.984;7.668;2023-09-12T03:28:43;20.30;99.90
2389;DHT22;1205;47.984;7.668;2023-09-12T03:31:10;20.30;99.90
2389;DHT22;1205;47.984;7.668;2023-09-12T03:33:40;20.20;99.90
2389;DHT22;1205;47.984;7.668;2023-09-12T03:36:06;20.30;99.90
2389;DHT22;1205;47.984;7.668;2023-09-12T03:38:33;20.30;99.90
2389;DHT22;1205;47.984;7.668;2023-09-12T03:40:59;20.40;99.90
2389;DHT22;1205;47.984;7.668;2023-09-12T03:43:24;20.50;99.90
2389;DHT22;1205;47.984;7.668;2023-09-12T03:45:50;20.50;99.90
2389;DHT22;1205;47.984;7.668;2023-09-12T03:48:16;20.40;99.90
2389;DHT22;1205;47.984;7.668;2023-09-12T03:50:41;20.40;99.90
2389;DHT22;1205;47.984;7.668;2023-09-12T03:53:07;20.30;99.90
2389;DHT22;1205;47.984;7.668;2023-09-12T03:55:32;20.30;99.90
2389;DHT22;1205;47.984;7.668;2023-09-12T03:57:58;20.30;99.90
2389;DHT22;1205;47.984;7.668;2023-09-12T04:00:24;20.30;99.90
2389;DHT22;1205;47.984;7.668;2023-09-12T04:02:49;20.40;99.90
2389;DHT22;1205;47.984;7.668;2023-09-12T04:05:15;20.40;99.90
2389;DHT22;1205;47.984;7.668;2023-09-12T04:07:40;20.30;99.90
2389;DHT22;1205;47.984;7.668;2023-09-12T04:10:06;20.30;99.90
2389;DHT22;1205;47.984;7.668;2023-09-12T04:12:32;20.30;99.90
2389;DHT22;1205;47.984;7.668;2023-09-12T04:14:57;20.30;99.90
2389;DHT22;1205;47.984;7.668;2023-09-12T04:17:23;20.40;99.90
2389;DHT22;1205;47.984;7.668;2023-09-12T04:19:49;20.30;99.90
2389;DHT22;1205;47.984;7.668;2023-09-12T04:22:14;20.20;99.90
2389;DHT22;1205;47.984;7.668;2023-09-12T04:24:40;20.20;99.90
2389;DHT22;1205;47.984;7.668;2023-09-12T04:27:06;20.20;99.90
2389;DHT22;1205;47.984;7.668;2023-09-12T04:29:34;20.30;99.90
2389;DHT22;1205;47.984;7.668;2023-09-12T04:32:02;20.30;99.90
2389;DHT22;1205;47.984;7.668;2023-09-12T04:34:28;20.20;99.90
2389;DHT22;1205;47.984;7.668;2023-09-12T04:36:54;20.20;99.90
2389;DHT22;1205;47.984;7.668;2023-09-12T04:39:19;20.30;99.90
2389;DHT22;1205;47.984;7.668;2023-09-12T04:41:46;20.30;99.90
2389;DHT22;1205;47.984;7.668;2023-09-12T04:44:11;20.30;99.90
2389;DHT22;1205;47.984;7.668;2023-09-12T04:46:37;20.30;99.90
2389;DHT22;1205;47.984;7.668;2023-09-12T04:49:03;20.20;99.90
2389;DHT22;1205;47.984;7.668;2023-09-12T04:51:29;20.10;99.90
2389;DHT22;1205;47.984;7.668;2023-09-12T04:53:54;20.10;99.90
2389;DHT22;1205;47.984;7.668;2023-09-12T04:56:20;20.10;99.90
2389;DHT22;1205;47.984;7.668;2023-09-12T04:58:46;20.10;99.90
2389;DHT22;1205;47.984;7.668;2023-09-12T05:01:11;20.10;99.90
2389;DHT22;1205;47.984;7.668;2023-09-12T05:03:37;20.00;99.90
2389;DHT22;1205;47.984;7.668;2023-09-12T05:06:03;20.00;99.90
2389;DHT22;1205;47.984;7.668;2023-09-12T05:08:29;19.90;99.90
2389;DHT22;1205;47.984;7.668;2023-09-12T05:10:55;19.90;99.90
2389;DHT22;1205;47.984;7.668;2023-09-12T05:13:20;19.90;99.90
2389;DHT22;1205;47.984;7.668;2023-09-12T05:15:47;19.90;99.90
2389;DHT22;1205;47.984;7.668;2023-09-12T05:18:12;19.70;99.90
2389;DHT22;1205;47.984;7.668;2023-09-12T05:20:38;19.80;99.90
2389;DHT22;1205;47.984;7.668;2023-09-12T05:23:04;19.80;99.90
2389;DHT22;1205;47.984;7.668;2023-09-12T05:25:30;19.80;99.90
2389;DHT22;1205;47.984;7.668;2023-09-12T05:27:56;19.80;99.90
2389;DHT22;1205;47.984;7.668;2023-09-12T05:30:22;19.90;99.90
2389;DHT22;1205;47.984;7.668;2023-09-12T05:32:47;20.10;99.90
2389;DHT22;1205;47.984;7.668;2023-09-12T05:35:13;20.00;99.90
2389;DHT22;1205;47.984;7.668;2023-09-12T05:37:38;19.90;99.90
2389;DHT22;1205;47.984;7.668;2023-09-12T05:40:05;19.80;99.90
2389;DHT22;1205;47.984;7.668;2023-09-12T05:42:31;19.70;99.90
2389;DHT22;1205;47.984;7.668;2023-09-12T05:44:57;19.80;99.90
2389;DHT22;1205;47.984;7.668;2023-09-12T05:47:22;20.00;99.90
2389;DHT22;1205;47.984;7.668;2023-09-12T05:49:48;20.10;99.90
2389;DHT22;1205;47.984;7.668;2023-09-12T05:52:14;20.30;99.90
2389;DHT22;1205;47.984;7.668;2023-09-12T05:54:40;20.10;99.90
2389;DHT22;1205;47.984;7.668;2023-09-12T05:57:07;20.40;99.90
2389;DHT22;1205;47.984;7.668;2023-09-12T05:59:34;20.70;99.90
2389;DHT22;1205;47.984;7.668;2023-09-12T06:01:59;21.00;99.90
2389;DHT22;1205;47.984;7.668;2023-09-12T06:04:25;21.10;99.90
2389;DHT22;1205;47.984;7.668;2023-09-12T06:06:51;21.10;99.90
2389;DHT22;1205;47.984;7.668;2023-09-12T06:09:16;21.10;99.90
2389;DHT22;1205;47.984;7.668;2023-09-12T06:11:42;21.00;99.90
2389;DHT22;1205;47.984;7.668;2023-09-12T06:14:07;21.30;99.90
2389;DHT22;1205;47.984;7.668;2023-09-12T06:16:33;21.50;99.90
2389;DHT22;1205;47.984;7.668;2023-09-12T06:18:58;21.60;99.90
2389;DHT22;1205;47.984;7.668;2023-09-12T06:21:24;21.70;99.90
2389;DHT22;1205;47.984;7.668;2023-09-12T06:24:09;21.80;99.90
2389;DHT22;1205;47.984;7.668;2023-09-12T06:26:36;21.90;99.90
2389;DHT22;1205;47.984;7.668;2023-09-12T06:29:02;22.10;99.90
2389;DHT22;1205;47.984;7.668;2023-09-12T06:31:28;22.20;99.90
2389;DHT22;1205;47.984;7.668;2023-09-12T06:33:53;22.30;99.90
2389;DHT22;1205;47.984;7.668;2023-09-12T06:36:19;22.40;99.90
2389;DHT22;1205;47.984;7.668;2023-09-12T06:38:45;22.50;99.90
2389;DHT22;1205;47.984;7.668;2023-09-12T06:41:10;22.60;99.90
2389;DHT22;1205;47.984;7.668;2023-09-12T06:43:36;22.80;99.90
2389;DHT22;1205;47.984;7.668;2023-09-12T06:46:01;22.90;99.90
2389;DHT22;1205;47.984;7.668;2023-09-12T06:48:27;23.10;99.90
2389;DHT22;1205;47.984;7.668;2023-09-12T06:50:54;23.20;99.90
2389;DHT22;1205;47.984;7.668;2023-09-12T06:53:19;23.40;99.90
2389;DHT22;1205;47.984;7.668;2023-09-12T06:55:45;23.60;99.90
2389;DHT22;1205;47.984;7.668;2023-09-12T06:58:10;23.50;99.90
2389;DHT22;1205;47.984;7.668;2023-09-12T07:00:36;23.60;99.90
2389;DHT22;1205;47.984;7.668;2023-09-12T07:03:02;23.40;99.90
2389;DHT22;1205;47.984;7.668;2023-09-12T07:05:28;23.30;99.90
2389;DHT22;1205;47.984;7.668;2023-09-12T07:07:53;23.40;99.90
2389;DHT22;1205;47.984;7.668;2023-09-12T07:10:19;23.40;99.90
2389;DHT22;1205;47.984;7.668;2023-09-12T07:12:45;23.50;99.90
2389;DHT22;1205;47.984;7.668;2023-09-12T07:15:10;23.50;99.90
2389;DHT22;1205;47.984;7.668;2023-09-12T07:17:36;23.50;99.90
2389;DHT22;1205;47.984;7.668;2023-09-12T07:20:01;23.70;99.90
2389;DHT22;1205;47.984;7.668;2023-09-12T07:22:27;23.60;99.90
2389;DHT22;1205;47.984;7.668;2023-09-12T07:24:52;23.80;99.90
2389;DHT22;1205;47.984;7.668;2023-09-12T07:27:18;24.00;99.90
2389;DHT22;1205;47.984;7.668;2023-09-12T07:29:43;24.20;99.90
2389;DHT22;1205;47.984;7.668;2023-09-12T07:32:09;24.70;99.90
2389;DHT22;1205;47.984;7.668;2023-09-12T07:34:35;25.00;99.90
2389;DHT22;1205;47.984;7.668;2023-09-12T07:37:01;25.00;99.90
2389;DHT22;1205;47.984;7.668;2023-09-12T07:39:26;25.10;99.90
2389;DHT22;1205;47.984;7.668;2023-09-12T07:41:52;25.20;99.90
2389;DHT22;1205;47.984;7.668;2023-09-12T07:44:17;25.10;99.90
2389;DHT22;1205;47.984;7.668;2023-09-12T07:46:46;25.00;99.90
2389;DHT22;1205;47.984;7.668;2023-09-12T07:49:11;25.20;99.90
2389;DHT22;1205;47.984;7.668;2023-09-12T07:51:37;25.20;99.90
2389;DHT22;1205;47.984;7.668;2023-09-12T07:54:03;25.30;99.70
2389;DHT22;1205;47.984;7.668;2023-09-12T07:56:28;25.30;99.50
2389;DHT22;1205;47.984;7.668;2023-09-12T07:58:54;25.30;99.30
2389;DHT22;1205;47.984;7.668;2023-09-12T08:01:21;25.60;99.90
2389;DHT22;1205;47.984;7.668;2023-09-12T08:03:46;25.60;99.90
2389;DHT22;1205;47.984;7.668;2023-09-12T08:06:12;25.40;98.90
2389;DHT22;1205;47.984;7.668;2023-09-12T08:08:38;25.60;99.80
2389;DHT22;1205;47.984;7.668;2023-09-12T08:11:04;25.90;99.00
2389;DHT22;1205;47.984;7.668;2023-09-12T08:13:30;25.90;99.60
2389;DHT22;1205;47.984;7.668;2023-09-12T08:15:57;25.90;98.60
2389;DHT22;1205;47.984;7.668;2023-09-12T08:18:29;26.10;99.30
2389;DHT22;1205;47.984;7.668;2023-09-12T08:20:54;26.20;98.50
2389;DHT22;1205;47.984;7.668;2023-09-12T08:23:20;26.20;98.40
2389;DHT22;1205;47.984;7.668;2023-09-12T08:25:46;26.20;98.80
2389;DHT22;1205;47.984;7.668;2023-09-12T08:28:11;26.40;98.70
2389;DHT22;1205;47.984;7.668;2023-09-12T08:30:37;26.20;97.10
2389;DHT22;1205;47.984;7.668;2023-09-12T08:33:02;26.40;98.40
2389;DHT22;1205;47.984;7.668;2023-09-12T08:35:29;26.60;98.70
2389;DHT22;1205;47.984;7.668;2023-09-12T08:37:54;26.70;98.00
2389;DHT22;1205;47.984;7.668;2023-09-12T08:40:20;26.70;97.60
2389;DHT22;1205;47.984;7.668;2023-09-12T08:42:46;26.70;97.10
2389;DHT22;1205;47.984;7.668;2023-09-12T08:45:14;27.00;98.30
2389;DHT22;1205;47.984;7.668;2023-09-12T08:47:42;27.20;98.30
2389;DHT22;1205;47.984;7.668;2023-09-12T08:50:12;27.40;96.10
2389;DHT22;1205;47.984;7.668;2023-09-12T08:52:43;27.50;95.30
2389;DHT22;1205;47.984;7.668;2023-09-12T08:55:09;27.60;92.10
2389;DHT22;1205;47.984;7.668;2023-09-12T08:57:40;27.60;92.30
2389;DHT22;1205;47.984;7.668;2023-09-12T09:00:09;27.50;91.70
2389;DHT22;1205;47.984;7.668;2023-09-12T09:02:40;27.60;91.90
2389;DHT22;1205;47.984;7.668;2023-09-12T09:05:07;27.80;91.60
2389;DHT22;1205;47.984;7.668;2023-09-12T09:07:38;27.80;91.90
2389;DHT22;1205;47.984;7.668;2023-09-12T09:10:06;27.80;92.20
2389;DHT22;1205;47.984;7.668;2023-09-12T09:12:33;27.60;89.20
2389;DHT22;1205;47.984;7.668;2023-09-12T09:15:20;27.60;87.80
2389;DHT22;1205;47.984;7.668;2023-09-12T09:17:46;27.50;87.10
2389;DHT22;1205;47.984;7.668;2023-09-12T09:20:21;27.50;87.30
2389;DHT22;1205;47.984;7.668;2023-09-12T09:23:01;27.60;86.90
2389;DHT22;1205;47.984;7.668;2023-09-12T09:25:33;27.70;87.80
2389;DHT22;1205;47.984;7.668;2023-09-12T09:28:02;27.80;87.60
2389;DHT22;1205;47.984;7.668;2023-09-12T09:30:43;28.00;91.30
2389;DHT22;1205;47.984;7.668;2023-09-12T09:33:10;28.10;90.50
2389;DHT22;1205;47.984;7.668;2023-09-12T09:35:36;28.10;86.90
2389;DHT22;1205;47.984;7.668;2023-09-12T09:38:06;28.10;84.30
2389;DHT22;1205;47.984;7.668;2023-09-12T09:40:33;28.20;85.60
2389;DHT22;1205;47.984;7.668;2023-09-12T09:43:00;28.30;85.60
2389;DHT22;1205;47.984;7.668;2023-09-12T09:45:27;28.30;86.00
2389;DHT22;1205;47.984;7.668;2023-09-12T09:47:57;28.40;84.10
2389;DHT22;1205;47.984;7.668;2023-09-12T09:50:24;28.30;85.20
2389;DHT22;1205;47.984;7.668;2023-09-12T09:52:56;28.50;87.50
2389;DHT22;1205;47.984;7.668;2023-09-12T09:55:23;28.40;83.80
2389;DHT22;1205;47.984;7.668;2023-09-12T09:57:50;28.50;85.30
2389;DHT22;1205;47.984;7.668;2023-09-12T10:00:20;28.50;84.70
2389;DHT22;1205;47.984;7.668;2023-09-12T10:02:47;28.60;86.70
2389;DHT22;1205;47.984;7.668;2023-09-12T10:05:14;28.60;83.80
2389;DHT22;1205;47.984;7.668;2023-09-12T10:07:40;28.70;81.50
2389;DHT22;1205;47.984;7.668;2023-09-12T10:10:08;28.80;84.80
2389;DHT22;1205;47.984;7.668;2023-09-12T10:12:39;28.80;82.60
2389;DHT22;1205;47.984;7.668;2023-09-12T10:15:07;28.80;82.50
2389;DHT22;1205;47.984;7.668;2023-09-12T10:17:39;28.80;80.70
2389;DHT22;1205;47.984;7.668;2023-09-12T10:20:11;28.90;78.70
2389;DHT22;1205;47.984;7.668;2023-09-12T10:25:28;28.90;81.10
2389;DHT22;1205;47.984;7.668;2023-09-12T10:27:54;28.90;78.70
2389;DHT22;1205;47.984;7.668;2023-09-12T10:30:22;28.90;80.10
2389;DHT22;1205;47.984;7.668;2023-09-12T10:32:48;28.90;81.40
2389;DHT22;1205;47.984;7.668;2023-09-12T10:35:15;29.10;81.40
2389;DHT22;1205;47.984;7.668;2023-09-12T10:37:41;29.10;79.60
2389;DHT22;1205;47.984;7.668;2023-09-12T10:40:11;29.30;78.80
2389;DHT22;1205;47.984;7.668;2023-09-12T10:42:39;29.30;82.40
2389;DHT22;1205;47.984;7.668;2023-09-12T10:45:06;29.40;78.10
2389;DHT22;1205;47.984;7.668;2023-09-12T10:47:35;29.40;80.30
2389;DHT22;1205;47.984;7.668;2023-09-12T10:50:01;29.40;80.70
2389;DHT22;1205;47.984;7.668;2023-09-12T10:52:28;29.40;80.00
2389;DHT22;1205;47.984;7.668;2023-09-12T10:54:54;29.40;79.50
2389;DHT22;1205;47.984;7.668;2023-09-12T10:57:20;29.50;80.00
2389;DHT22;1205;47.984;7.668;2023-09-12T11:02:37;29.50;79.10
2389;DHT22;1205;47.984;7.668;2023-09-12T11:05:05;29.60;80.70
2389;DHT22;1205;47.984;7.668;2023-09-12T11:07:44;29.60;81.70
2389;DHT22;1205;47.984;7.668;2023-09-12T11:12:44;29.60;78.40
2389;DHT22;1205;47.984;7.668;2023-09-12T11:15:10;29.70;80.10
2389;DHT22;1205;47.984;7.668;2023-09-12T11:17:44;29.70;79.50
2389;DHT22;1205;47.984;7.668;2023-09-12T11:20:10;29.80;78.90
2389;DHT22;1205;47.984;7.668;2023-09-12T11:22:40;29.80;81.40
2389;DHT22;1205;47.984;7.668;2023-09-12T11:25:17;29.80;80.60
2389;DHT22;1205;47.984;7.668;2023-09-12T11:27:46;30.20;78.40
2389;DHT22;1205;47.984;7.668;2023-09-12T11:30:26;30.10;78.80
2389;DHT22;1205;47.984;7.668;2023-09-12T11:32:56;30.20;80.40
2389;DHT22;1205;47.984;7.668;2023-09-12T11:35:24;30.40;78.60
2389;DHT22;1205;47.984;7.668;2023-09-12T11:37:54;30.30;76.80
2389;DHT22;1205;47.984;7.668;2023-09-12T11:42:57;30.40;78.50
2389;DHT22;1205;47.984;7.668;2023-09-12T11:45:23;30.40;74.60
2389;DHT22;1205;47.984;7.668;2023-09-12T11:47:49;30.30;76.10
2389;DHT22;1205;47.984;7.668;2023-09-12T11:50:34;30.40;75.80
2389;DHT22;1205;47.984;7.668;2023-09-12T11:53:06;30.40;76.00
2389;DHT22;1205;47.984;7.668;2023-09-12T11:58:02;30.50;78.20
2389;DHT22;1205;47.984;7.668;2023-09-12T12:00:29;30.50;74.50
2389;DHT22;1205;47.984;7.668;2023-09-12T12:02:55;30.60;76.50
2389;DHT22;1205;47.984;7.668;2023-09-12T12:05:21;30.60;74.70
2389;DHT22;1205;47.984;7.668;2023-09-12T12:07:48;30.60;74.00
2389;DHT22;1205;47.984;7.668;2023-09-12T12:10:14;30.70;75.30
2389;DHT22;1205;47.984;7.668;2023-09-12T12:12:40;30.80;73.00
2389;DHT22;1205;47.984;7.668;2023-09-12T12:15:10;30.80;73.00
2389;DHT22;1205;47.984;7.668;2023-09-12T12:17:41;30.80;72.70
2389;DHT22;1205;47.984;7.668;2023-09-12T12:20:11;30.80;73.30
2389;DHT22;1205;47.984;7.668;2023-09-12T12:22:40;30.80;71.80
2389;DHT22;1205;47.984;7.668;2023-09-12T12:25:07;30.70;70.50
2389;DHT22;1205;47.984;7.668;2023-09-12T12:27:38;30.70;70.70
2389;DHT22;1205;47.984;7.668;2023-09-12T12:30:12;30.80;71.60
2389;DHT22;1205;47.984;7.668;2023-09-12T12:32:46;30.90;71.90
2389;DHT22;1205;47.984;7.668;2023-09-12T12:35:21;30.90;71.20
2389;DHT22;1205;47.984;7.668;2023-09-12T12:37:52;30.90;72.70
2389;DHT22;1205;47.984;7.668;2023-09-12T12:40:19;31.00;73.10
2389;DHT22;1205;47.984;7.668;2023-09-12T12:42:45;31.00;74.00
2389;DHT22;1205;47.984;7.668;2023-09-12T12:45:23;31.10;72.00
2389;DHT22;1205;47.984;7.668;2023-09-12T12:47:58;31.10;71.90
2389;DHT22;1205;47.984;7.668;2023-09-12T12:50:24;31.10;63.80
2389;DHT22;1205;47.984;7.668;2023-09-12T12:52:49;31.00;62.00
2389;DHT22;1205;47.984;7.668;2023-09-12T12:55:16;31.00;62.00
2389;DHT22;1205;47.984;7.668;2023-09-12T12:57:43;31.20;61.20
2389;DHT22;1205;47.984;7.668;2023-09-12T13:00:14;31.30;59.90
2389;DHT22;1205;47.984;7.668;2023-09-12T13:02:41;31.50;60.70
2389;DHT22;1205;47.984;7.668;2023-09-12T13:05:26;31.50;59.00
2389;DHT22;1205;47.984;7.668;2023-09-12T13:07:52;31.60;60.00
2389;DHT22;1205;47.984;7.668;2023-09-12T13:10:19;31.60;61.20
2389;DHT22;1205;47.984;7.668;2023-09-12T13:12:44;31.70;61.60
2389;DHT22;1205;47.984;7.668;2023-09-12T13:15:11;31.50;59.90
2389;DHT22;1205;47.984;7.668;2023-09-12T13:17:37;31.40;62.20
2389;DHT22;1205;47.984;7.668;2023-09-12T13:20:03;31.40;64.20
2389;DHT22;1205;47.984;7.668;2023-09-12T13:22:29;31.50;58.50
2389;DHT22;1205;47.984;7.668;2023-09-12T13:24:54;31.50;57.70
2389;DHT22;1205;47.984;7.668;2023-09-12T13:27:20;31.50;57.50
2389;DHT22;1205;47.984;7.668;2023-09-12T13:29:46;31.40;57.70
2389;DHT22;1205;47.984;7.668;2023-09-12T13:32:13;31.40;58.00
2389;DHT22;1205;47.984;7.668;2023-09-12T13:34:41;31.50;59.30
2389;DHT22;1205;47.984;7.668;2023-09-12T13:37:06;31.60;58.10
2389;DHT22;1205;47.984;7.668;2023-09-12T13:39:32;31.40;58.60
2389;DHT22;1205;47.984;7.668;2023-09-12T13:41:57;31.40;58.40
2389;DHT22;1205;47.984;7.668;2023-09-12T13:44:25;31.30;59.10
2389;DHT22;1205;47.984;7.668;2023-09-12T13:46:50;31.40;60.30
2389;DHT22;1205;47.984;7.668;2023-09-12T13:49:16;31.40;60.00
2389;DHT22;1205;47.984;7.668;2023-09-12T13:51:42;31.50;59.90
2389;DHT22;1205;47.984;7.668;2023-09-12T13:54:07;31.50;60.90
2389;DHT22;1205;47.984;7.668;2023-09-12T13:56:43;31.40;59.60
2389;DHT22;1205;47.984;7.668;2023-09-12T13:59:10;31.40;60.40
2389;DHT22;1205;47.984;7.668;2023-09-12T14:01:35;31.50;61.00
2389;DHT22;1205;47.984;7.668;2023-09-12T14:04:02;31.50;61.50
2389;DHT22;1205;47.984;7.668;2023-09-12T14:06:28;31.60;61.00
2389;DHT22;1205;47.984;7.668;2023-09-12T14:08:54;31.50;61.50
2389;DHT22;1205;47.984;7.668;2023-09-12T14:11:19;31.60;61.90
2389;DHT22;1205;47.984;7.668;2023-09-12T14:13:45;31.60;62.20
2389;DHT22;1205;47.984;7.668;2023-09-12T14:16:10;31.60;62.70
2389;DHT22;1205;47.984;7.668;2023-09-12T14:18:36;31.60;63.50
2389;DHT22;1205;47.984;7.668;2023-09-12T14:21:02;31.60;63.10
2389;DHT22;1205;47.984;7.668;2023-09-12T14:23:28;31.60;64.40
2389;DHT22;1205;47.984;7.668;2023-09-12T14:25:54;31.60;64.30
2389;DHT22;1205;47.984;7.668;2023-09-12T14:28:19;31.70;64.80
2389;DHT22;1205;47.984;7.668;2023-09-12T14:30:45;31.60;68.20
2389;DHT22;1205;47.984;7.668;2023-09-12T14:33:11;31.50;66.40
2389;DHT22;1205;47.984;7.668;2023-09-12T14:35:37;31.50;67.60
2389;DHT22;1205;47.984;7.668;2023-09-12T14:38:03;31.50;67.20
2389;DHT22;1205;47.984;7.668;2023-09-12T14:40:29;31.50;65.60
2389;DHT22;1205;47.984;7.668;2023-09-12T14:42:55;31.50;65.70
2389;DHT22;1205;47.984;7.668;2023-09-12T14:45:21;31.50;65.40
2389;DHT22;1205;47.984;7.668;2023-09-12T14:47:46;31.50;65.40
2389;DHT22;1205;47.984;7.668;2023-09-12T14:50:12;31.50;65.90
2389;DHT22;1205;47.984;7.668;2023-09-12T14:52:38;31.40;67.30
2389;DHT22;1205;47.984;7.668;2023-09-12T14:55:04;31.50;66.10
2389;DHT22;1205;47.984;7.668;2023-09-12T14:57:30;31.40;68.70
2389;DHT22;1205;47.984;7.668;2023-09-12T14:59:56;31.40;68.20
2389;DHT22;1205;47.984;7.668;2023-09-12T15:02:24;31.30;69.00
2389;DHT22;1205;47.984;7.668;2023-09-12T15:04:49;31.30;69.70
2389;DHT22;1205;47.984;7.668;2023-09-12T15:07:15;31.30;67.30
2389;DHT22;1205;47.984;7.668;2023-09-12T15:09:40;31.30;67.80
2389;DHT22;1205;47.984;7.668;2023-09-12T15:12:07;31.20;69.70
2389;DHT22;1205;47.984;7.668;2023-09-12T15:14:34;31.30;65.30
2389;DHT22;1205;47.984;7.668;2023-09-12T15:16:59;31.20;67.40
2389;DHT22;1205;47.984;7.668;2023-09-12T15:19:25;31.20;66.40
2389;DHT22;1205;47.984;7.668;2023-09-12T15:21:51;31.20;66.20
2389;DHT22;1205;47.984;7.668;2023-09-12T15:24:16;31.10;67.30
2389;DHT22;1205;47.984;7.668;2023-09-12T15:26:42;31.20;66.70
2389;DHT22;1205;47.984;7.668;2023-09-12T15:29:07;31.20;67.10
2389;DHT22;1205;47.984;7.668;2023-09-12T15:31:34;31.20;66.80
2389;DHT22;1205;47.984;7.668;2023-09-12T15:33:59;31.20;66.30
2389;DHT22;1205;47.984;7.668;2023-09-12T15:36:25;31.20;67.30
2389;DHT22;1205;47.984;7.668;2023-09-12T15:38:50;31.20;67.40
2389;DHT22;1205;47.984;7.668;2023-09-12T15:41:16;31.10;67.40
2389;DHT22;1205;47.984;7.668;2023-09-12T15:43:41;31.10;65.90
2389;DHT22;1205;47.984;7.668;2023-09-12T15:46:07;31.10;66.20
2389;DHT22;1205;47.984;7.668;2023-09-12T15:48:33;31.10;66.80
2389;DHT22;1205;47.984;7.668;2023-09-12T15:50:58;31.00;67.70
2389;DHT22;1205;47.984;7.668;2023-09-12T15:53:24;31.10;67.10
2389;DHT22;1205;47.984;7.668;2023-09-12T15:55:50;31.00;67.00
2389;DHT22;1205;47.984;7.668;2023-09-12T15:58:17;31.00;66.20
2389;DHT22;1205;47.984;7.668;2023-09-12T16:00:43;30.90;66.10
2389;DHT22;1205;47.984;7.668;2023-09-12T16:03:09;30.90;66.90
2389;DHT22;1205;47.984;7.668;2023-09-12T16:05:34;30.80;67.90
2389;DHT22;1205;47.984;7.668;2023-09-12T16:08:00;30.80;66.90
2389;DHT22;1205;47.984;7.668;2023-09-12T16:10:25;30.70;68.40
2389;DHT22;1205;47.984;7.668;2023-09-12T16:12:51;30.70;66.50
2389;DHT22;1205;47.984;7.668;2023-09-12T16:15:16;30.70;66.50
2389;DHT22;1205;47.984;7.668;2023-09-12T16:17:42;30.70;66.60